Time;durP1;ratioP1;P1;durP2;ratioP2;P2;SDS_P1;SDS_P2;PMS_P1;PMS_P2;Temp;Humidity;BMP_temperature;BMP_pressure;BME280_temperature;BME280_humidity;BME280_pressure;Samples;Min_cycle;Max_cycle;Signal;HPM_P1;HPM_P2
2021/09/01 00:00:08;;;;;;;11.45;8.60;;;15.20;81.70;;;14.88;67.87;95382.13;5056989;28;20230;-82
2021/09/01 00:02:40;;;;;;;10.32;8.93;;;15.20;81.80;;;14.87;68.01;95393.69;5058064;28;20210;-82
2021/09/01 00:05:09;;;;;;;12.85;9.65;;;15.30;82.00;;;14.85;68.01;95390.44;5057164;28;20288;-81
2021/09/01 00:07:37;;;;;;;11.15;8.10;;;15.20;81.90;;;14.87;67.86;95385.78;5072282;28;20256;-81
2021/09/01 00:10:06;;;;;;;11.23;8.95;;;15.20;81.90;;;14.87;67.88;95393.69;5056483;28;20231;-81
2021/09/01 00:12:35;;;;;;;10.45;8.07;;;15.20;81.90;;;14.84;67.43;95391.47;5040673;28;20294;-82
2021/09/01 00:15:04;;;;;;;11.52;8.85;;;15.20;81.80;;;14.78;67.60;95389.66;5056902;28;20696;-81
2021/09/01 00:17:33;;;;;;;9.65;8.60;;;15.20;81.60;;;14.73;67.62;95399.00;5039687;28;20595;-82
2021/09/01 00:20:07;;;;;;;9.98;8.43;;;15.20;81.40;;;14.68;67.54;95396.19;5073572;28;20301;-81
2021/09/01 00:22:34;;;;;;;10.68;8.90;;;15.10;81.30;;;14.62;67.95;95393.50;5040796;28;20736;-82
2021/09/01 00:25:01;;;;;;;10.35;8.65;;;15.20;81.30;;;14.60;67.62;95395.53;5073196;28;20574;-82
2021/09/01 00:27:29;;;;;;;11.02;8.55;;;15.00;81.30;;;14.55;67.69;95390.88;5056164;28;20217;-82
2021/09/01 00:29:57;;;;;;;9.48;8.38;;;15.00;81.50;;;14.56;67.88;95392.47;5090351;28;20191;-81
2021/09/01 00:32:24;;;;;;;10.20;8.18;;;15.00;81.60;;;14.53;67.71;95392.91;5057184;28;20191;-82
2021/09/01 00:34:51;;;;;;;11.18;9.88;;;15.00;81.60;;;14.53;67.75;95390.28;5061042;28;20209;-82
2021/09/01 00:37:18;;;;;;;16.30;10.13;;;14.90;81.50;;;14.50;67.52;95388.03;5056447;28;20270;-81
2021/09/01 00:39:45;;;;;;;8.98;7.45;;;15.00;81.50;;;14.44;67.08;95381.75;5072714;28;20221;-81
2021/09/01 00:42:12;;;;;;;11.95;8.68;;;14.80;81.10;;;14.35;67.35;95382.97;5074432;28;20736;-80
2021/09/01 00:44:42;;;;;;;10.27;8.13;;;14.80;81.00;;;14.30;67.17;95380.13;5073161;28;20226;-82
2021/09/01 00:47:09;;;;;;;9.43;8.20;;;14.80;80.90;;;14.19;67.11;95386.81;5071771;28;20281;-82
2021/09/01 00:49:36;;;;;;;10.18;8.55;;;14.70;80.80;;;14.07;67.35;95382.16;5056540;28;20193;-82
2021/09/01 00:52:05;;;;;;;9.25;7.60;;;14.70;80.80;;;14.02;67.32;95389.84;5039735;28;20257;-82
2021/09/01 00:54:32;;;;;;;8.90;7.63;;;14.60;80.80;;;13.92;67.61;95387.59;5056387;28;20234;-81
2021/09/01 00:57:05;;;;;;;9.27;8.27;;;14.60;81.00;;;13.92;67.75;95394.72;5039619;28;20280;-80
2021/09/01 00:59:36;;;;;;;8.88;7.70;;;14.50;81.10;;;13.87;67.95;95402.41;5019870;28;20223;-82
2021/09/01 01:02:04;;;;;;;8.93;7.78;;;14.40;81.10;;;13.87;67.64;95402.41;5052800;28;20220;-82
2021/09/01 01:04:33;;;;;;;11.43;8.20;;;14.40;81.20;;;13.84;67.63;95402.81;5036317;28;20282;-80
2021/09/01 01:07:03;;;;;;;9.43;7.97;;;14.50;81.30;;;13.79;67.73;95402.59;5055570;28;20795;-81
2021/09/01 01:09:35;;;;;;;7.13;6.43;;;14.30;81.20;;;13.77;67.44;95405.44;5072579;28;20197;-81
2021/09/01 01:12:20;;;;;;;9.50;7.65;;;14.20;81.10;;;13.68;67.51;95394.25;5039607;28;20313;-82
2021/09/01 01:14:51;;;;;;;9.73;7.63;;;14.20;81.20;;;13.64;67.53;95397.50;5072270;28;20746;-82
2021/09/01 01:17:22;;;;;;;8.73;7.40;;;14.20;81.10;;;13.60;67.73;95399.72;5051945;28;20299;-81
2021/09/01 01:19:53;;;;;;;10.35;8.02;;;14.10;81.00;;;13.51;67.80;95399.09;5069149;28;20227;-81
2021/09/01 01:22:26;;;;;;;8.98;7.78;;;14.10;81.00;;;13.46;68.23;95401.47;5052808;28;20206;-82
2021/09/01 01:25:06;;;;;;;8.95;7.70;;;14.00;81.10;;;13.43;67.64;95413.22;5036425;28;20294;-80
2021/09/01 01:27:41;;;;;;;10.00;7.88;;;14.00;81.30;;;13.42;67.66;95410.81;5036260;28;20299;-81
2021/09/01 01:30:13;;;;;;;11.05;8.95;;;13.90;81.10;;;13.39;67.91;95421.72;5052301;28;20211;-82
2021/09/01 01:32:44;;;;;;;8.68;7.63;;;13.90;81.20;;;13.36;67.65;95412.34;5070315;28;20199;-81
2021/09/01 01:35:23;;;;;;;10.07;7.57;;;13.90;81.20;;;13.32;67.80;95410.31;5055367;28;20260;-82
2021/09/01 01:37:50;;;;;;;8.35;6.90;;;13.90;81.30;;;13.31;68.17;95409.50;5055687;28;20206;-82
2021/09/01 01:40:17;;;;;;;10.75;7.63;;;13.80;81.30;;;13.27;67.86;95409.09;5055717;28;20322;-81
2021/09/01 01:42:45;;;;;;;8.38;6.97;;;13.80;81.30;;;13.28;68.20;95417.78;5054869;28;20237;-81
2021/09/01 01:45:12;;;;;;;9.55;6.35;;;13.80;81.30;;;13.23;68.34;95426.31;5038228;28;20737;-80
2021/09/01 01:47:39;;;;;;;10.75;7.75;;;13.80;81.40;;;13.27;68.24;95418.81;5088873;28;20203;-81
2021/09/01 01:50:07;;;;;;;10.43;7.05;;;13.70;81.50;;;13.27;68.07;95418.81;5071846;28;20206;-81
2021/09/01 01:52:35;;;;;;;9.90;7.47;;;13.70;81.50;;;13.27;68.19;95417.00;5071970;28;20195;-81
2021/09/01 01:55:05;;;;;;;8.25;6.80;;;13.70;81.50;;;13.26;67.76;95422.47;5054829;28;20226;-81
2021/09/01 01:57:32;;;;;;;8.23;6.88;;;13.70;81.50;;;13.24;68.13;95420.03;5055045;28;20214;-81
2021/09/01 01:59:59;;;;;;;8.10;6.88;;;13.70;81.50;;;13.21;68.24;95414.34;5054859;28;20609;-81
2021/09/01 02:02:30;;;;;;;8.45;6.72;;;13.70;81.50;;;13.20;68.25;95416.16;5055075;28;20194;-82
2021/09/01 02:04:59;;;;;;;8.98;6.93;;;13.70;81.50;;;13.23;68.34;95413.13;5054793;28;20191;-82
2021/09/01 02:07:29;;;;;;;8.43;7.00;;;13.70;81.70;;;13.24;68.11;95419.19;5055363;28;20202;-82
2021/09/01 02:09:56;;;;;;;8.15;6.47;;;13.70;81.80;;;13.23;68.16;95412.31;5071069;28;20191;-81
2021/09/01 02:12:28;;;;;;;8.90;7.07;;;13.60;81.70;;;13.28;68.23;95425.69;5070443;28;20233;-81
2021/09/01 02:14:57;;;;;;;11.23;7.72;;;13.70;81.90;;;13.31;68.44;95421.88;5063823;28;20290;-80
2021/09/01 02:17:28;;;;;;;10.70;8.32;;;13.60;81.90;;;13.29;68.33;95428.16;5067106;28;20202;-80
2021/09/01 02:19:58;;;;;;;10.60;7.35;;;13.70;81.90;;;13.28;68.19;95415.16;5051582;28;20688;-80
2021/09/01 02:22:26;;;;;;;10.40;7.97;;;13.70;81.90;;;13.27;68.11;95424.91;5068162;28;20214;-81
2021/09/01 02:24:53;;;;;;;8.88;7.75;;;13.70;81.80;;;13.29;68.48;95437.88;5050828;28;20655;-82
2021/09/01 02:27:20;;;;;;;9.60;8.20;;;13.70;81.80;;;13.29;68.35;95438.69;5067671;28;20213;-82
2021/09/01 02:29:48;;;;;;;9.02;7.60;;;13.70;81.90;;;13.26;68.10;95436.44;5063870;28;20253;-81
2021/09/01 02:32:15;;;;;;;10.35;7.80;;;13.70;81.80;;;13.28;68.34;95444.97;5031149;28;20491;-81
2021/09/01 02:34:43;;;;;;;11.10;8.13;;;13.70;82.00;;;13.33;68.47;95449.66;5065786;28;20203;-82
2021/09/01 02:37:10;;;;;;;9.52;8.05;;;13.60;82.10;;;13.35;68.42;95449.44;5052135;28;20297;-80
2021/09/01 02:39:37;;;;;;;12.68;8.45;;;13.70;82.20;;;13.37;68.48;95450.88;5071054;28;20296;-81
2021/09/01 02:42:04;;;;;;;10.25;7.45;;;13.70;82.30;;;13.43;68.70;95444.06;5070990;28;20243;-82
2021/09/01 02:44:32;;;;;;;10.95;8.57;;;13.70;82.20;;;13.44;68.52;95450.94;5054214;28;20574;-82
2021/09/01 02:46:59;;;;;;;11.43;8.50;;;13.90;82.30;;;13.47;68.41;95444.47;5054227;28;20218;-82
2021/09/01 02:49:26;;;;;;;10.13;7.97;;;13.80;82.20;;;13.47;68.37;95449.75;5034594;28;20253;-81
2021/09/01 02:51:53;;;;;;;11.20;8.13;;;13.80;82.10;;;13.48;68.27;95457.44;5056875;28;20297;-81
2021/09/01 02:54:21;;;;;;;10.60;7.68;;;13.80;82.00;;;13.50;67.92;95462.50;5037777;28;20256;-82
2021/09/01 02:56:48;;;;;;;9.13;7.97;;;13.80;82.00;;;13.51;68.43;95453.59;5071128;28;20297;-81
2021/09/01 02:59:15;;;;;;;11.07;7.70;;;13.90;82.10;;;13.53;68.44;95447.13;5052967;28;20673;-80
2021/09/01 03:01:42;;;;;;;10.20;8.07;;;13.90;82.20;;;13.56;68.21;95448.53;5075802;28;20232;-81
2021/09/01 03:04:10;;;;;;;11.00;8.02;;;13.90;82.20;;;13.60;68.55;95449.78;5061984;28;20202;-80
2021/09/01 03:06:37;;;;;;;10.88;8.10;;;14.00;82.30;;;13.65;68.33;95457.13;5086685;28;20222;-80
2021/09/01 03:09:04;;;;;;;13.45;8.55;;;13.90;82.30;;;13.64;68.36;95442.31;5045536;28;20258;-80
2021/09/01 03:11:31;;;;;;;12.18;8.48;;;13.90;82.20;;;13.70;68.34;95458.13;5057682;28;20211;-80
2021/09/01 03:13:59;;;;;;;9.35;8.35;;;14.00;82.20;;;13.68;68.08;95456.72;5066198;28;20221;-82
2021/09/01 03:16:26;;;;;;;10.85;8.60;;;14.10;82.20;;;13.69;68.07;95445.97;5057743;28;20297;-80
2021/09/01 03:18:54;;;;;;;10.50;7.53;;;14.00;82.10;;;13.68;68.25;95452.22;5069331;28;20207;-81
2021/09/01 03:21:21;;;;;;;9.95;8.50;;;14.00;82.10;;;13.72;68.21;95453.47;5049471;28;20222;-81
2021/09/01 03:23:48;;;;;;;9.63;7.65;;;14.00;82.00;;;13.74;68.19;95456.75;5073647;28;20302;-79
2021/09/01 03:26:15;;;;;;;10.35;8.02;;;14.10;82.00;;;13.74;67.69;95455.91;5073755;28;20242;-81
2021/09/01 03:28:42;;;;;;;8.90;7.15;;;14.10;81.90;;;13.75;67.80;95455.72;5056409;28;20199;-82
2021/09/01 03:31:09;;;;;;;11.68;8.50;;;14.10;81.90;;;13.70;68.10;95452.84;5073028;28;20702;-80
2021/09/01 03:33:37;;;;;;;8.23;7.35;;;14.10;81.80;;;13.71;67.79;95470.31;5057535;28;20226;-82
2021/09/01 03:36:05;;;;;;;10.27;8.38;;;14.10;81.60;;;13.68;67.85;95467.25;5073763;28;20223;-80
2021/09/01 03:38:33;;;;;;;8.80;7.43;;;14.10;81.60;;;13.66;67.86;95464.81;5071070;28;20199;-80
2021/09/01 03:41:00;;;;;;;10.15;7.65;;;14.10;81.70;;;13.67;67.62;95473.53;5053138;28;20376;-81
2021/09/01 03:43:27;;;;;;;9.70;7.75;;;14.10;81.70;;;13.68;68.09;95486.50;5070842;28;20195;-82
2021/09/01 03:45:55;;;;;;;9.73;7.18;;;14.10;81.80;;;13.70;67.92;95481.84;5038007;28;20579;-81
2021/09/01 03:48:22;;;;;;;9.93;7.40;;;14.10;81.90;;;13.70;67.93;95479.22;5037664;28;20697;-81
2021/09/01 03:50:50;;;;;;;10.88;7.80;;;14.00;81.90;;;13.71;68.00;95472.16;5085474;28;20309;-81
2021/09/01 03:53:19;;;;;;;10.82;7.63;;;14.20;82.00;;;13.77;68.00;95480.06;5055407;28;20190;-82
2021/09/01 03:55:47;;;;;;;10.70;8.05;;;14.10;82.00;;;13.81;68.12;95480.47;5055627;28;20696;-81
2021/09/01 03:58:14;;;;;;;10.93;7.60;;;14.10;81.90;;;13.84;67.69;95477.47;5051813;28;20700;-82
2021/09/01 04:00:43;;;;;;;10.30;8.00;;;14.20;82.00;;;13.86;67.67;95478.06;5043042;28;20317;-81
2021/09/01 04:03:10;;;;;;;9.05;7.82;;;14.20;82.00;;;13.91;67.75;95488.00;5068782;28;20210;-82
2021/09/01 04:05:38;;;;;;;10.27;7.78;;;14.30;82.10;;;13.95;67.75;95488.44;5035375;28;20258;-82
2021/09/01 04:08:06;;;;;;;10.45;7.38;;;14.20;81.90;;;13.98;67.88;95490.69;5038419;28;20234;-81
2021/09/01 04:10:33;;;;;;;9.45;7.50;;;14.30;82.00;;;14.02;67.65;95486.63;5056988;28;20575;-81
2021/09/01 04:13:00;;;;;;;10.45;7.90;;;14.30;81.90;;;14.00;67.40;95489.47;5057749;28;20204;-82
2021/09/01 04:15:27;;;;;;;9.50;7.78;;;14.30;81.90;;;14.05;67.58;95488.88;5057336;28;20242;-82
2021/09/01 04:17:55;;;;;;;9.57;7.75;;;14.30;81.80;;;14.08;67.56;95488.47;5057536;28;20256;-81
2021/09/01 04:20:22;;;;;;;9.10;7.40;;;14.30;81.70;;;14.08;67.59;95499.81;5055253;28;20254;-82
2021/09/01 04:22:49;;;;;;;10.73;8.23;;;14.30;81.70;;;14.07;67.49;95489.47;5073058;28;20640;-81
2021/09/01 04:25:16;;;;;;;9.77;7.45;;;14.30;81.50;;;14.07;67.48;95498.22;5056838;28;20229;-82
2021/09/01 04:27:43;;;;;;;9.75;7.22;;;14.40;81.50;;;14.04;67.00;95501.25;5072762;28;20278;-83
2021/09/01 04:30:11;;;;;;;9.20;7.20;;;14.40;81.40;;;14.01;67.44;95499.00;5040470;28;20218;-81
2021/09/01 04:32:38;;;;;;;7.93;6.68;;;14.40;81.30;;;13.96;67.33;95506.69;5073738;28;20214;-82
2021/09/01 04:35:05;;;;;;;11.00;7.85;;;14.40;81.20;;;13.92;67.21;95498.34;5056750;28;20211;-82
2021/09/01 04:37:32;;;;;;;11.30;7.72;;;14.40;81.30;;;13.92;67.33;95508.09;5056014;28;20221;-82
2021/09/01 04:39:59;;;;;;;9.75;7.43;;;14.40;81.40;;;13.97;67.63;95516.22;5073044;28;20203;-82
2021/09/01 04:42:26;;;;;;;8.32;6.70;;;14.30;81.30;;;14.00;67.54;95520.28;5056910;28;20252;-83
2021/09/01 04:44:54;;;;;;;9.48;7.20;;;14.40;81.50;;;14.03;67.81;95525.97;5040188;28;20190;-83
2021/09/01 04:47:21;;;;;;;9.23;7.80;;;14.40;81.60;;;14.05;67.44;95520.53;5069550;28;20234;-82
2021/09/01 04:49:48;;;;;;;10.27;6.93;;;14.40;81.60;;;14.05;67.48;95520.53;5056436;28;20258;-82
2021/09/01 04:52:15;;;;;;;10.98;7.30;;;14.40;81.70;;;14.08;67.57;95533.31;5073372;28;20199;-81
2021/09/01 04:54:42;;;;;;;10.20;8.23;;;14.50;81.60;;;14.09;67.26;95534.94;5056630;28;20198;-82
2021/09/01 04:57:09;;;;;;;11.85;7.47;;;14.40;81.60;;;14.11;67.22;95540.00;5056252;28;20199;-83
2021/09/01 04:59:36;;;;;;;11.07;8.02;;;14.40;81.50;;;14.09;67.13;95541.03;5039851;28;20244;-83
2021/09/01 05:02:04;;;;;;;10.00;8.30;;;14.40;81.50;;;14.14;67.48;95544.91;5056153;28;20231;-83
2021/09/01 05:04:31;;;;;;;10.57;7.57;;;14.40;81.50;;;14.11;67.17;95540.84;5039583;28;20686;-82
2021/09/01 05:06:58;;;;;;;9.20;7.25;;;14.40;81.50;;;14.14;67.39;95550.19;5053776;28;20215;-82
2021/09/01 05:09:25;;;;;;;8.13;6.68;;;14.40;81.40;;;14.17;67.29;95569.06;5036375;28;20201;-81
2021/09/01 05:11:53;;;;;;;12.82;8.15;;;14.50;81.50;;;14.17;67.09;95547.13;5069599;28;20246;-82
2021/09/01 05:14:20;;;;;;;11.80;7.55;;;14.50;81.50;;;14.20;67.11;95547.53;5069828;28;20285;-82
2021/09/01 05:16:47;;;;;;;11.13;8.02;;;14.50;81.40;;;14.19;66.81;95564.38;5069271;28;20226;-82
2021/09/01 05:19:14;;;;;;;10.23;7.80;;;14.50;81.20;;;14.17;67.14;95560.31;5053689;28;20195;-83
2021/09/01 05:21:51;;;;;;;8.27;7.03;;;14.50;81.20;;;14.16;67.27;95561.31;5069872;28;20250;-83
2021/09/01 05:24:53;;;;;;;10.82;7.90;;;14.50;81.10;;;14.15;67.31;95563.16;5069924;28;20333;-82
2021/09/01 05:27:22;;;;;;;9.82;7.30;;;14.50;81.20;;;14.19;66.96;95568.84;5066307;28;20256;-83
2021/09/01 05:29:51;;;;;;;11.13;7.82;;;14.60;81.30;;;14.19;67.21;95574.94;5033750;28;20207;-82
2021/09/01 05:32:30;;;;;;;8.70;7.45;;;14.60;81.30;;;14.24;67.05;95579.63;5078543;28;20605;-83
2021/09/01 05:35:00;;;;;;;10.48;7.50;;;14.50;81.20;;;14.27;67.30;95573.97;5070340;28;20275;-82
2021/09/01 05:37:29;;;;;;;9.95;7.82;;;14.60;81.50;;;14.33;67.00;95573.16;5053674;28;20248;-81
2021/09/01 05:39:59;;;;;;;10.15;7.68;;;14.50;81.50;;;14.35;67.22;95562.41;5051496;28;20650;-82
2021/09/01 05:42:29;;;;;;;10.05;7.40;;;14.60;81.50;;;14.42;67.53;95571.16;5052319;28;20254;-82
2021/09/01 05:44:57;;;;;;;10.25;7.00;;;14.60;81.50;;;14.43;67.20;95564.03;5072952;28;20194;-82
2021/09/01 05:47:26;;;;;;;9.38;7.50;;;14.70;81.60;;;14.54;66.84;95571.41;5055434;28;20202;-83
2021/09/01 05:49:56;;;;;;;9.50;7.28;;;14.70;81.50;;;14.58;66.68;95578.69;5055586;28;20256;-82
2021/09/01 05:52:25;;;;;;;9.43;7.15;;;14.70;81.50;;;14.62;66.81;95579.09;5067985;28;20525;-81
2021/09/01 05:54:52;;;;;;;8.88;7.28;;;14.80;81.60;;;14.64;66.75;95577.09;5088527;28;20249;-82
2021/09/01 05:57:35;;;;;;;9.60;7.47;;;14.80;81.50;;;14.70;66.61;95576.31;5054427;28;20624;-82
2021/09/01 06:00:15;;;;;;;9.02;7.28;;;14.90;81.40;;;14.77;66.77;95591.34;5053168;28;20310;-81
2021/09/01 06:03:10;;;;;;;12.48;8.07;;;14.90;81.40;;;14.83;66.53;95585.25;5055270;28;20247;-81
2021/09/01 06:05:39;;;;;;;8.43;7.28;;;14.90;81.20;;;14.92;66.96;95578.78;5051462;28;20727;-83
2021/09/01 06:08:08;;;;;;;8.85;7.05;;;15.10;81.80;;;15.03;66.62;95583.44;5062674;28;20195;-82
2021/09/01 06:10:37;;;;;;;9.50;7.70;;;15.10;81.80;;;15.13;66.64;95582.25;5057425;28;20206;-82
2021/09/01 06:13:08;;;;;;;12.32;8.55;;;15.10;81.60;;;15.20;66.07;95583.84;5036258;28;20293;-83
2021/09/01 06:15:39;;;;;;;10.35;7.82;;;15.20;81.50;;;15.24;65.78;95581.63;5035021;28;20774;-82
2021/09/01 06:18:08;;;;;;;10.98;9.02;;;15.30;81.40;;;15.33;65.77;95585.69;5051776;28;20198;-83
2021/09/01 06:20:38;;;;;;;11.95;8.38;;;15.40;81.60;;;15.50;65.95;95594.00;5051612;28;20603;-83
2021/09/01 06:23:07;;;;;;;11.60;8.63;;;15.50;81.90;;;15.69;66.19;95591.53;5051265;28;20238;-82
2021/09/01 06:25:36;;;;;;;12.25;9.00;;;15.50;82.20;;;15.82;65.69;95582.75;5051486;28;20273;-83
2021/09/01 06:28:08;;;;;;;11.18;8.70;;;15.70;81.90;;;16.04;65.80;95593.06;5051785;28;20200;-82
2021/09/01 06:30:36;;;;;;;11.98;8.50;;;15.80;81.70;;;16.18;64.98;95599.94;5051795;28;20246;-82
2021/09/01 06:33:04;;;;;;;11.20;8.45;;;16.00;81.70;;;16.24;64.41;95588.50;5051504;28;20210;-83
2021/09/01 06:35:31;;;;;;;10.60;8.45;;;16.10;81.20;;;16.40;64.34;95592.50;5051649;28;20219;-82
2021/09/01 06:37:58;;;;;;;10.52;8.23;;;16.20;81.20;;;16.52;64.20;95597.16;5051498;28;20631;-83
2021/09/01 06:40:26;;;;;;;9.07;7.35;;;16.40;81.20;;;16.57;64.32;95598.13;5051675;28;20230;-82
2021/09/01 06:42:54;;;;;;;9.25;7.72;;;16.40;80.70;;;16.58;63.89;95597.09;5051381;28;20637;-82
2021/09/01 06:45:22;;;;;;;10.88;7.60;;;16.50;80.40;;;16.60;63.28;95591.59;5067116;28;20227;-83
2021/09/01 06:47:50;;;;;;;10.68;7.40;;;16.60;79.80;;;16.61;63.64;95594.03;5051253;28;20631;-82
2021/09/01 06:50:24;;;;;;;10.50;7.63;;;16.60;80.00;;;16.59;62.86;95608.53;5067745;28;20298;-82
2021/09/01 06:52:53;;;;;;;8.63;7.22;;;16.70;79.40;;;16.58;63.36;95594.44;5051379;28;20191;-83
2021/09/01 06:55:21;;;;;;;11.45;7.13;;;16.70;79.40;;;16.55;63.08;95602.84;5051152;28;20254;-83
2021/09/01 06:57:48;;;;;;;10.32;7.38;;;16.70;79.40;;;16.53;63.32;95589.00;5034721;28;20270;-82
2021/09/01 07:00:18;;;;;;;9.02;6.70;;;16.70;79.40;;;16.54;63.61;95590.63;5051111;28;20723;-82
2021/09/01 07:02:46;;;;;;;9.60;7.03;;;16.70;79.40;;;16.59;62.84;95592.63;5034533;28;20268;-82
2021/09/01 07:05:14;;;;;;;10.25;7.55;;;16.70;79.40;;;16.61;63.54;95593.22;5034555;28;20223;-82
2021/09/01 07:07:43;;;;;;;8.52;6.20;;;16.70;79.40;;;16.62;63.43;95600.97;5035261;28;20195;-82
2021/09/01 07:10:12;;;;;;;9.50;7.05;;;16.70;79.40;;;16.61;63.08;95599.34;5051123;28;20720;-82
2021/09/01 07:12:41;;;;;;;8.90;6.38;;;16.70;79.40;;;16.56;62.90;95596.50;5068169;28;20206;-82
2021/09/01 07:15:09;;;;;;;9.15;6.55;;;16.70;79.40;;;16.62;63.31;95605.44;5051039;28;20294;-83
2021/09/01 07:17:38;;;;;;;8.95;6.65;;;16.70;79.40;;;16.69;63.58;95605.41;5051217;28;20286;-83
2021/09/01 07:20:07;;;;;;;8.88;7.05;;;16.70;79.40;;;16.76;62.54;95604.34;5051165;28;20256;-84
2021/09/01 07:22:34;;;;;;;9.85;6.95;;;16.80;79.40;;;16.78;62.68;95599.66;5050994;28;20601;-83
2021/09/01 07:25:03;;;;;;;8.10;6.75;;;16.80;79.40;;;16.84;62.61;95608.56;5050845;28;20216;-82
2021/09/01 07:27:31;;;;;;;7.18;6.13;;;16.80;79.40;;;16.85;62.92;95610.19;5034453;28;20336;-83
2021/09/01 07:29:59;;;;;;;8.70;6.38;;;16.90;79.50;;;16.91;62.57;95605.88;5034715;28;20191;-82
2021/09/01 07:32:26;;;;;;;7.78;6.40;;;16.90;79.30;;;16.94;63.10;95614.25;5034384;28;20233;-83
2021/09/01 07:34:53;;;;;;;7.43;6.15;;;16.90;79.40;;;16.99;63.01;95615.44;5050947;28;20278;-81
2021/09/01 07:37:21;;;;;;;8.25;6.30;;;17.00;79.40;;;17.02;62.45;95613.16;5050818;28;20675;-82
2021/09/01 07:39:48;;;;;;;8.52;5.97;;;17.00;79.50;;;17.06;62.95;95610.88;5051076;28;20190;-82
2021/09/01 07:42:15;;;;;;;8.50;6.05;;;17.10;79.40;;;17.09;62.50;95613.94;5050583;28;20218;-82
2021/09/01 07:44:42;;;;;;;7.57;5.90;;;17.10;79.20;;;17.10;62.63;95606.78;5050810;28;20196;-83
2021/09/01 07:47:10;;;;;;;10.18;5.97;;;17.10;79.00;;;17.16;62.70;95619.16;5034439;28;20736;-83
2021/09/01 07:49:37;;;;;;;8.75;6.13;;;17.10;78.90;;;17.15;62.18;95616.72;5050888;28;20211;-82
2021/09/01 07:52:05;;;;;;;8.43;6.45;;;17.20;78.70;;;17.20;62.50;95625.66;5050437;28;20235;-82
2021/09/01 07:54:33;;;;;;;7.57;6.25;;;17.20;78.70;;;17.21;61.68;95631.78;5033842;28;20203;-82
2021/09/01 07:57:01;;;;;;;7.22;5.93;;;17.20;78.30;;;17.23;62.47;95624.44;5053879;28;20266;-83
2021/09/01 07:59:28;;;;;;;8.32;6.22;;;17.30;78.80;;;17.32;62.03;95624.97;5070878;28;20641;-82
2021/09/01 08:01:55;;;;;;;7.55;6.05;;;17.20;78.80;;;17.35;61.45;95616.59;5053970;28;20239;-81
2021/09/01 08:04:24;;;;;;;8.25;5.90;;;17.30;78.50;;;17.54;61.91;95625.38;5057962;28;20320;-81
2021/09/01 08:06:51;;;;;;;7.22;5.82;;;17.40;78.60;;;17.69;62.03;95615.25;5073180;28;20652;-80
2021/09/01 08:09:20;;;;;;;8.73;6.05;;;17.50;79.20;;;17.87;61.80;95630.38;5057065;28;20187;-83
2021/09/01 08:11:47;;;;;;;7.35;5.53;;;17.60;79.10;;;17.98;60.92;95630.69;5074072;28;20226;-83
2021/09/01 08:14:15;;;;;;;7.00;5.40;;;17.70;78.50;;;18.10;61.34;95633.44;5069712;28;20196;-81
2021/09/01 08:16:42;;;;;;;6.80;5.55;;;17.80;78.60;;;18.22;61.25;95635.16;5054838;28;20298;-84
2021/09/01 08:19:09;;;;;;;7.30;5.82;;;17.90;78.80;;;18.31;61.61;95625.03;5054643;28;20216;-81
2021/09/01 08:21:36;;;;;;;7.05;5.63;;;18.00;78.70;;;18.48;61.14;95632.38;5039036;28;20313;-82
2021/09/01 08:24:03;;;;;;;8.18;5.80;;;18.10;78.80;;;18.65;61.38;95649.34;5071764;28;20315;-82
2021/09/01 08:26:31;;;;;;;9.23;6.10;;;18.30;78.90;;;18.77;58.43;95660.00;5054811;28;20625;-82
2021/09/01 08:28:58;;;;;;;6.55;5.53;;;18.40;77.70;;;18.82;59.35;95659.31;5053907;28;20281;-83
2021/09/01 08:31:25;;;;;;;7.05;5.28;;;18.50;77.30;;;18.86;59.77;95663.97;5036017;28;20226;-82
2021/09/01 08:33:52;;;;;;;8.23;5.10;;;18.50;77.40;;;19.01;59.77;95676.88;5063716;28;20195;-82
2021/09/01 08:36:19;;;;;;;6.13;5.00;;;18.70;77.60;;;19.21;59.96;95681.09;5055204;28;20272;-82
2021/09/01 08:38:46;;;;;;;6.00;4.68;;;18.70;77.70;;;19.41;59.98;95683.47;5071862;28;20305;-81
2021/09/01 08:41:16;;;;;;;5.40;4.47;;;18.90;78.20;;;19.64;60.17;95685.34;5055300;28;20696;-81
2021/09/01 08:43:46;;;;;;;6.30;5.25;;;19.10;77.50;;;19.84;59.15;95685.03;5047842;28;20643;-81
2021/09/01 08:46:14;;;;;;;6.25;5.20;;;19.30;77.60;;;19.99;58.21;95684.59;5071915;28;20211;-82
2021/09/01 08:48:42;;;;;;;6.03;5.30;;;19.40;76.80;;;20.09;58.69;95680.53;5070896;28;20232;-82
2021/09/01 08:51:09;;;;;;;6.53;4.72;;;19.50;76.90;;;20.20;58.96;95665.56;5054293;28;20217;-81
2021/09/01 08:53:37;;;;;;;5.72;4.85;;;19.70;77.20;;;20.31;57.45;95672.72;5037960;28;20343;-82
2021/09/01 08:56:04;;;;;;;6.55;4.90;;;19.80;75.90;;;20.37;55.94;95687.78;5054311;28;20238;-81
2021/09/01 08:58:31;;;;;;;7.82;5.18;;;19.90;75.40;;;20.33;56.16;95669.84;5054143;28;20222;-81
2021/09/01 09:00:59;;;;;;;5.38;4.10;;;20.00;74.70;;;20.27;56.61;95676.91;5070706;28;20222;-81
2021/09/01 09:03:29;;;;;;;6.72;5.32;;;20.00;74.70;;;20.21;56.71;95667.19;5061846;28;20190;-81
2021/09/01 09:06:04;;;;;;;5.95;4.60;;;20.00;74.50;;;20.15;56.39;95668.94;5047371;28;20231;-80
2021/09/01 09:08:33;;;;;;;6.18;5.07;;;20.00;74.10;;;20.13;55.94;95660.38;5054233;28;20283;-81
2021/09/01 09:11:00;;;;;;;5.65;4.63;;;20.00;73.90;;;20.23;56.63;95663.25;5055100;28;20684;-81
2021/09/01 09:13:34;;;;;;;7.10;5.47;;;20.00;74.70;;;20.31;54.71;95665.56;5049736;28;20240;-81
2021/09/01 09:16:13;;;;;;;5.60;4.88;;;20.00;73.40;;;20.31;55.57;95662.91;5054767;28;20321;-82
2021/09/01 09:18:41;;;;;;;5.60;4.65;;;20.10;73.80;;;20.30;55.70;95663.94;5085870;28;20191;-82
2021/09/01 09:21:21;;;;;;;5.25;4.45;;;20.10;73.60;;;20.31;55.72;95678.06;5052338;28;20260;-81
2021/09/01 09:23:50;;;;;;;6.95;4.88;;;20.10;73.60;;;20.37;55.54;95673.66;5055583;28;20195;-81
2021/09/01 09:26:27;;;;;;;6.10;4.70;;;20.10;73.50;;;20.32;54.98;95663.69;5055972;28;20293;-81
2021/09/01 09:29:15;;;;;;;6.88;5.32;;;20.10;73.10;;;20.40;55.54;95670.53;5036781;28;20186;-81
2021/09/01 09:32:06;;;;;;;9.48;5.68;;;20.20;73.30;;;20.54;54.32;95665.75;5053788;28;20220;-82
2021/09/01 09:34:35;;;;;;;6.25;5.18;;;20.30;72.80;;;20.74;52.50;95673.38;5068859;28;20210;-81
2021/09/01 09:37:09;;;;;;;6.05;4.80;;;20.30;72.60;;;20.95;53.83;95663.88;5051269;28;20311;-82
2021/09/01 09:39:48;;;;;;;7.38;5.25;;;20.40;72.80;;;21.17;54.38;95682.69;5050872;28;20222;-82
2021/09/01 09:42:37;;;;;;;5.72;4.90;;;20.60;73.10;;;21.24;53.88;95677.22;5052793;28;20547;-81
2021/09/01 09:45:23;;;;;;;6.75;4.47;;;20.70;73.00;;;21.34;53.88;95679.25;5053543;28;20270;-82
2021/09/01 09:47:54;;;;;;;6.70;4.95;;;20.80;72.50;;;21.43;53.06;95689.28;5052843;28;20649;-82
2021/09/01 09:50:21;;;;;;;6.93;5.20;;;21.00;72.10;;;21.53;53.25;95680.63;5054607;28;20264;-82
2021/09/01 09:52:50;;;;;;;7.18;5.15;;;21.10;72.50;;;21.62;52.51;95681.06;5054326;28;20287;-82
2021/09/01 09:55:20;;;;;;;5.68;4.35;;;21.10;72.10;;;21.67;53.21;95677.66;5053461;28;20236;-82
2021/09/01 09:58:02;;;;;;;5.35;4.45;;;21.20;71.70;;;21.62;51.01;95685.56;5054956;28;20188;-82
2021/09/01 10:00:30;;;;;;;5.82;4.32;;;21.30;70.60;;;21.49;51.80;95684.00;5055316;28;20210;-83
2021/09/01 10:02:58;;;;;;;5.40;4.63;;;21.30;71.30;;;21.39;52.55;95688.13;5054266;28;20235;-82
2021/09/01 10:05:27;;;;;;;6.38;4.82;;;21.40;70.90;;;21.34;52.44;95682.69;5058415;28;20576;-82
2021/09/01 10:08:00;;;;;;;7.40;4.25;;;21.30;70.70;;;21.30;52.97;95684.25;5054711;28;20196;-82
2021/09/01 10:10:27;;;;;;;6.68;4.90;;;21.30;70.80;;;21.28;53.05;95689.00;5036814;28;20219;-82
2021/09/01 10:12:54;;;;;;;5.32;4.60;;;21.20;70.80;;;21.24;52.92;95685.22;5052670;28;20666;-82
2021/09/01 10:15:35;;;;;;;6.82;4.70;;;21.30;70.70;;;21.21;52.42;95680.34;5070117;28;20249;-82
2021/09/01 10:18:06;;;;;;;5.20;4.57;;;21.20;70.30;;;21.21;52.47;95683.00;5038186;28;20656;-83
2021/09/01 10:20:38;;;;;;;5.10;4.25;;;21.20;70.30;;;21.22;52.46;95690.75;5071123;28;20254;-82
2021/09/01 10:23:08;;;;;;;6.65;4.80;;;21.10;70.60;;;21.14;51.69;95685.00;5055232;28;20215;-83
2021/09/01 10:25:42;;;;;;;5.47;4.40;;;21.10;69.60;;;21.01;51.53;95683.47;5067235;28;20239;-82